createdAt,value
2022-08-07T00:00:09.679Z,68.47
2022-08-07T00:02:37.008Z,68.65
2022-08-07T00:04:59.004Z,68.07
2022-08-07T00:07:16.448Z,68.75
2022-08-07T00:09:33.806Z,69.79
2022-08-07T00:11:55.362Z,69.15
2022-08-07T00:14:13.865Z,69.17
2022-08-07T00:16:38.844Z,68.24
2022-08-07T00:19:00.232Z,68.75
2022-08-07T00:21:55.365Z,69.55
2022-08-07T00:23:57.656Z,69.04
2022-08-07T00:26:31.127Z,69.82
2022-08-07T00:28:55.466Z,68.90
2022-08-07T00:31:16.703Z,68.67
2022-08-07T00:33:35.036Z,69.35
2022-08-07T00:35:52.070Z,68.77
2022-08-07T00:38:09.730Z,69.34
2022-08-07T00:40:36.330Z,68.94
2022-08-07T00:42:57.491Z,69.27
2022-08-07T00:45:16.195Z,69.55
2022-08-07T00:48:09.701Z,69.59
2022-08-07T00:50:20.040Z,69.64
2022-08-07T00:52:47.715Z,70.19
2022-08-07T00:55:10.672Z,69.58
2022-08-07T00:57:28.393Z,70.24
2022-08-07T00:59:51.291Z,70.07
2022-08-07T01:02:14.093Z,69.88
2022-08-07T01:04:45.598Z,70.42
2022-08-07T01:07:02.613Z,70.74
2022-08-07T01:09:51.193Z,70.37
2022-08-07T01:12:09.428Z,70.81
2022-08-07T01:14:37.330Z,70.69
2022-08-07T01:16:54.301Z,71.12
2022-08-07T01:19:19.205Z,71.07
2022-08-07T01:21:36.806Z,70.83
2022-08-07T01:23:54.073Z,71.36
2022-08-07T01:26:12.043Z,71.42
2022-08-07T01:28:29.453Z,70.53
2022-08-07T01:30:47.192Z,71.12
2022-08-07T01:33:08.308Z,71.29
2022-08-07T01:35:25.241Z,71.34
2022-08-07T01:38:02.095Z,71.81
2022-08-07T01:40:20.453Z,71.71
2022-08-07T01:42:57.141Z,71.63
2022-08-07T01:45:17.866Z,71.54
2022-08-07T01:48:19.976Z,71.67
2022-08-07T01:50:15.287Z,72.38
2022-08-07T01:52:40.852Z,72.27
2022-08-07T01:55:22.556Z,72.56
2022-08-07T01:58:01.274Z,72.57
2022-08-07T02:00:18.410Z,72.68
2022-08-07T02:03:12.224Z,72.73
2022-08-07T02:05:43.087Z,72.54
2022-08-07T02:07:59.744Z,72.99
2022-08-07T02:10:17.789Z,72.99
2022-08-07T02:12:35.257Z,72.63
2022-08-07T02:14:52.269Z,72.88
2022-08-07T02:17:09.223Z,72.88
2022-08-07T02:20:06.829Z,73.14
2022-08-07T02:22:07.922Z,72.67
2022-08-07T02:24:25.793Z,72.78
2022-08-07T02:26:46.631Z,73.07
2022-08-07T02:29:03.587Z,72.94
2022-08-07T02:31:28.320Z,73.21
2022-08-07T02:34:01.847Z,73.97
2022-08-07T02:36:29.120Z,74.14
2022-08-07T02:38:50.881Z,73.51
2022-08-07T02:41:14.334Z,74.06
2022-08-07T02:43:39.573Z,74.42
2022-08-07T02:45:59.002Z,73.75
2022-08-07T02:48:17.927Z,73.50
2022-08-07T02:50:34.981Z,73.62
2022-08-07T02:52:54.380Z,73.93
2022-08-07T02:55:28.751Z,74.73
2022-08-07T02:57:57.113Z,74.33
2022-08-07T03:00:14.677Z,73.95
2022-08-07T03:02:35.523Z,73.64
2022-08-07T03:04:52.601Z,73.77
2022-08-07T03:07:10.638Z,74.37
2022-08-07T03:09:42.399Z,74.43
2022-08-07T03:12:02.756Z,74.17
2022-08-07T03:14:20.141Z,73.57
2022-08-07T03:16:39.606Z,74.66
2022-08-07T03:18:58.709Z,74.99
2022-08-07T03:21:19.054Z,74.58
2022-08-07T03:24:20.931Z,74.12
2022-08-07T03:26:15.537Z,74.18
2022-08-07T03:28:39.694Z,73.84
2022-08-07T03:30:57.158Z,75.46
2022-08-07T03:33:14.409Z,74.22
2022-08-07T03:35:43.532Z,73.71
2022-08-07T03:38:01.037Z,74.88
2022-08-07T03:40:22.272Z,74.11
2022-08-07T03:42:40.806Z,74.09
2022-08-07T03:45:01.454Z,74.98
2022-08-07T03:47:18.865Z,74.24
2022-08-07T03:49:35.821Z,75.03
2022-08-07T03:52:00.972Z,74.24
2022-08-07T03:54:36.412Z,74.40
2022-08-07T03:57:03.979Z,75.05
2022-08-07T03:59:24.810Z,74.78
2022-08-07T04:01:43.255Z,74.44
2022-08-07T04:04:04.974Z,74.27
2022-08-07T04:06:37.171Z,74.77
2022-08-07T04:08:55.457Z,75.15
2022-08-07T04:12:23.396Z,75.64
2022-08-07T04:14:10.900Z,75.71
2022-08-07T04:16:31.607Z,75.15
2022-08-07T04:18:59.479Z,74.88
2022-08-07T04:21:18.983Z,76.51
2022-08-07T04:23:43.521Z,75.78
2022-08-07T04:26:13.963Z,75.52
2022-08-07T04:28:33.944Z,76.51
2022-08-07T04:30:57.137Z,76.04
2022-08-07T04:33:15.984Z,76.53
2022-08-07T04:35:35.469Z,76.41
2022-08-07T04:38:03.149Z,76.76
2022-08-07T04:40:29.578Z,75.43
2022-08-07T04:42:51.695Z,76.37
2022-08-07T04:45:09.543Z,76.80
2022-08-07T04:48:02.053Z,76.52
2022-08-07T04:50:05.003Z,75.71
2022-08-07T04:52:25.171Z,75.57
2022-08-07T04:54:50.340Z,75.36
2022-08-07T04:58:12.232Z,76.48
2022-08-07T05:00:10.858Z,75.71
2022-08-07T05:02:22.305Z,76.98
2022-08-07T05:04:47.216Z,75.52
2022-08-07T05:07:19.466Z,75.65
2022-08-07T05:09:46.594Z,75.12
2022-08-07T05:12:05.032Z,76.04
2022-08-07T05:14:55.290Z,75.66
2022-08-07T05:16:59.299Z,75.18
2022-08-07T05:19:16.267Z,74.95
2022-08-07T05:22:00.564Z,74.89
2022-08-07T05:24:12.207Z,76.52
2022-08-07T05:26:29.157Z,75.16
2022-08-07T05:28:48.416Z,75.81
2022-08-07T05:31:05.711Z,75.27
2022-08-07T05:33:23.650Z,74.39
2022-08-07T05:35:43.118Z,76.02
2022-08-07T05:38:09.081Z,74.95
2022-08-07T05:40:27.116Z,75.43
2022-08-07T05:42:55.655Z,75.44
2022-08-07T05:45:25.866Z,74.31
2022-08-07T05:48:01.830Z,73.82
2022-08-07T05:50:19.849Z,73.08
2022-08-07T05:52:37.602Z,73.43
2022-08-07T05:54:58.587Z,72.96
2022-08-07T05:57:16.675Z,72.31
2022-08-07T05:59:38.813Z,71.26
2022-08-07T06:02:11.129Z,70.80
2022-08-07T06:04:30.171Z,70.73
2022-08-07T06:06:56.483Z,69.38
2022-08-07T06:09:20.602Z,70.32
2022-08-07T06:11:57.619Z,68.96
2022-08-07T06:14:20.954Z,69.06
2022-08-07T06:16:38.593Z,66.65
2022-08-07T06:18:55.758Z,67.92
2022-08-07T06:22:16.207Z,66.36
2022-08-07T06:24:38.409Z,64.88
2022-08-07T06:26:27.784Z,65.69
2022-08-07T06:28:44.901Z,63.55
2022-08-07T06:31:06.299Z,62.31
2022-08-07T06:33:23.646Z,62.88
2022-08-07T06:35:47.793Z,61.27
2022-08-07T06:38:19.335Z,61.46
2022-08-07T06:40:38.113Z,61.21
2022-08-07T06:43:02.992Z,61.61
2022-08-07T06:45:24.563Z,60.35
2022-08-07T06:47:48.138Z,60.85
2022-08-07T06:50:15.886Z,59.41
2022-08-07T06:52:36.464Z,59.79
2022-08-07T06:55:34.299Z,58.80
2022-08-07T06:57:43.717Z,59.07
2022-08-07T07:00:17.497Z,58.63
2022-08-07T07:02:54.402Z,58.55
2022-08-07T07:05:12.729Z,58.30
2022-08-07T07:07:59.590Z,56.68
2022-08-07T07:10:07.101Z,56.32
2022-08-07T07:12:29.170Z,57.28
2022-08-07T07:14:48.242Z,56.98
2022-08-07T07:17:05.462Z,57.58
2022-08-07T07:19:55.122Z,55.80
2022-08-07T07:22:04.671Z,55.40
2022-08-07T07:24:29.455Z,55.38
2022-08-07T07:26:49.726Z,53.59
2022-08-07T07:29:39.048Z,53.53
2022-08-07T07:31:46.841Z,53.95
2022-08-07T07:34:04.021Z,54.27
2022-08-07T07:36:21.091Z,53.55
2022-08-07T07:38:38.853Z,52.61
2022-08-07T07:41:01.460Z,53.02
2022-08-07T07:43:27.453Z,52.01
2022-08-07T07:46:40.606Z,49.59
2022-08-07T07:48:35.839Z,50.75
2022-08-07T07:50:53.245Z,48.18
2022-08-07T07:53:20.447Z,48.25
2022-08-07T07:55:45.792Z,47.91
2022-08-07T07:58:14.669Z,47.17
2022-08-07T08:00:35.506Z,46.93
2022-08-07T08:03:05.065Z,47.27
2022-08-07T08:05:23.027Z,44.74
2022-08-07T08:07:59.612Z,45.52
2022-08-07T08:10:38.262Z,44.31
2022-08-07T08:12:59.632Z,45.46
2022-08-07T08:15:17.235Z,44.23
2022-08-07T08:17:58.147Z,43.91
2022-08-07T08:20:23.150Z,43.23
2022-08-07T08:22:55.782Z,40.72
2022-08-07T08:25:24.987Z,41.92
2022-08-07T08:27:56.415Z,42.09
2022-08-07T08:30:17.446Z,41.42
2022-08-07T08:32:38.364Z,42.39
2022-08-07T08:34:56.446Z,40.38
2022-08-07T08:37:59.513Z,42.20
2022-08-07T08:39:55.235Z,42.21
2022-08-07T08:42:15.763Z,40.74
2022-08-07T08:44:44.322Z,41.48
2022-08-07T08:47:02.014Z,40.87
2022-08-07T08:49:19.449Z,40.43
2022-08-07T08:52:14.159Z,41.05
2022-08-07T08:54:27.683Z,40.03
2022-08-07T08:56:47.556Z,39.28
2022-08-07T08:59:06.390Z,40.17
2022-08-07T09:01:40.166Z,39.46
2022-08-07T09:04:03.802Z,41.02
2022-08-07T09:06:21.102Z,40.64
2022-08-07T09:08:39.613Z,40.77
2022-08-07T09:10:57.640Z,40.76
2022-08-07T09:13:14.986Z,40.53
2022-08-07T09:16:24.885Z,39.25
2022-08-07T09:18:16.824Z,39.56
2022-08-07T09:20:37.168Z,38.44
2022-08-07T09:24:32.710Z,40.17
2022-08-07T09:25:32.385Z,40.28
2022-08-07T09:27:59.722Z,39.58
2022-08-07T09:30:17.888Z,39.88
2022-08-07T09:32:42.700Z,40.03
2022-08-07T09:35:00.055Z,39.20
2022-08-07T09:37:47.803Z,39.41
2022-08-07T09:39:59.534Z,38.99
2022-08-07T09:42:17.298Z,40.16
2022-08-07T09:47:27.459Z,39.81
2022-08-07T09:47:42.521Z,39.42
2022-08-07T09:50:01.196Z,38.99
2022-08-07T09:52:33.575Z,39.66
2022-08-07T09:54:52.472Z,39.57
2022-08-07T09:57:12.865Z,38.98
2022-08-07T09:59:37.083Z,38.29
2022-08-07T10:02:04.593Z,38.46
2022-08-07T10:04:28.162Z,38.89
2022-08-07T10:06:53.990Z,38.14
2022-08-07T10:09:13.379Z,37.86
2022-08-07T10:12:01.071Z,38.21
2022-08-07T10:14:11.288Z,37.73
2022-08-07T10:16:28.593Z,38.16
2022-08-07T10:18:45.662Z,38.55
2022-08-07T10:21:04.857Z,36.49
2022-08-07T10:24:04.875Z,37.47
2022-08-07T10:26:14.032Z,37.41
2022-08-07T10:28:37.628Z,37.03
2022-08-07T10:30:54.655Z,36.70
2022-08-07T10:33:14.938Z,36.45
2022-08-07T10:35:53.440Z,36.87
2022-08-07T10:38:35.253Z,35.64
2022-08-07T10:40:47.098Z,34.32
2022-08-07T10:43:04.191Z,35.05
2022-08-07T10:45:44.108Z,35.42
2022-08-07T10:48:03.135Z,35.90
2022-08-07T10:50:25.993Z,35.98
2022-08-07T10:52:43.438Z,35.22
2022-08-07T10:55:32.491Z,34.81
2022-08-07T10:57:45.820Z,35.29
2022-08-07T11:00:09.086Z,35.92
2022-08-07T11:02:32.764Z,35.46
2022-08-07T11:04:51.863Z,35.71
2022-08-07T11:07:14.854Z,35.65
2022-08-07T11:10:10.158Z,34.85
2022-08-07T11:12:31.251Z,35.23
2022-08-07T11:14:56.966Z,33.71
2022-08-07T11:17:23.157Z,34.46
2022-08-07T11:19:54.897Z,32.97
2022-08-07T11:22:26.593Z,32.99
2022-08-07T11:24:51.725Z,32.36
2022-08-07T11:27:09.079Z,31.32
2022-08-07T11:29:41.234Z,32.38
2022-08-07T11:32:00.776Z,32.43
2022-08-07T11:34:19.757Z,31.80
2022-08-07T11:36:37.087Z,31.18
2022-08-07T11:38:54.261Z,32.74
2022-08-07T11:41:22.332Z,31.61
2022-08-07T11:44:10.646Z,33.01
2022-08-07T11:46:26.653Z,32.68
2022-08-07T11:49:04.102Z,32.07
2022-08-07T11:51:41.699Z,32.66
2022-08-07T11:54:00.802Z,31.50
2022-08-07T11:56:27.102Z,31.94
2022-08-07T11:58:45.767Z,30.33
2022-08-07T12:01:07.108Z,31.48
2022-08-07T12:03:45.767Z,30.70
2022-08-07T12:06:03.129Z,31.51
2022-08-07T12:08:39.992Z,31.34
2022-08-07T12:11:08.033Z,31.06
2022-08-07T12:13:39.210Z,30.63
2022-08-07T12:16:06.733Z,30.86
2022-08-07T12:18:29.467Z,29.68
2022-08-07T12:20:49.255Z,29.37
2022-08-07T12:23:09.026Z,30.49
2022-08-07T12:26:05.901Z,31.15
2022-08-07T12:28:09.962Z,30.14
2022-08-07T12:30:27.916Z,31.19
2022-08-07T12:32:45.203Z,30.52
2022-08-07T12:35:08.280Z,30.82
2022-08-07T12:37:28.366Z,30.48
2022-08-07T12:40:02.729Z,30.50
2022-08-07T12:42:27.358Z,29.55
2022-08-07T12:44:45.477Z,29.92
2022-08-07T12:47:02.849Z,30.20
2022-08-07T12:49:39.794Z,29.50
2022-08-07T12:52:14.483Z,28.96
2022-08-07T12:54:38.206Z,29.88
2022-08-07T12:56:55.656Z,29.86
2022-08-07T12:59:20.391Z,30.13
2022-08-07T13:01:37.824Z,30.12
2022-08-07T13:04:02.765Z,31.00
2022-08-07T13:06:27.843Z,30.00
2022-08-07T13:08:45.079Z,30.03
2022-08-07T13:11:04.185Z,29.31
2022-08-07T13:13:47.525Z,29.85
2022-08-07T13:15:59.939Z,29.75
2022-08-07T13:18:26.018Z,29.35
2022-08-07T13:20:44.571Z,30.13
2022-08-07T13:23:09.672Z,29.97
2022-08-07T13:25:38.792Z,29.71
2022-08-07T13:28:10.904Z,29.71
2022-08-07T13:30:41.267Z,29.78
2022-08-07T13:33:01.167Z,29.43
2022-08-07T13:35:21.460Z,29.39
2022-08-07T13:37:38.980Z,29.18
2022-08-07T13:40:35.097Z,29.91
2022-08-07T13:42:38.945Z,28.30
2022-08-07T13:45:20.864Z,29.30
2022-08-07T13:48:06.390Z,29.38
2022-08-07T13:50:34.508Z,29.90
2022-08-07T13:52:49.117Z,30.36
2022-08-07T13:55:07.862Z,29.00
2022-08-07T13:57:38.429Z,29.07
2022-08-07T13:59:55.692Z,29.31
2022-08-07T14:02:13.095Z,29.63
2022-08-07T14:04:36.203Z,30.07
2022-08-07T14:06:54.204Z,30.56
2022-08-07T14:09:16.950Z,30.64
2022-08-07T14:11:53.526Z,32.08
2022-08-07T14:14:11.475Z,30.60
2022-08-07T14:16:31.203Z,31.27
2022-08-07T14:18:50.000Z,31.14
2022-08-07T14:22:00.351Z,33.01
2022-08-07T14:23:59.564Z,33.49
2022-08-07T14:26:30.525Z,31.98
2022-08-07T14:28:55.988Z,32.01
2022-08-07T14:31:17.616Z,31.88
2022-08-07T14:33:44.936Z,30.76
2022-08-07T14:36:02.364Z,31.38
2022-08-07T14:38:26.400Z,31.97
2022-08-07T14:40:49.546Z,31.24
2022-08-07T14:43:59.470Z,31.85
2022-08-07T14:45:48.652Z,31.74
2022-08-07T14:48:06.245Z,31.64
2022-08-07T14:50:24.842Z,30.09
2022-08-07T14:52:42.697Z,30.42
2022-08-07T14:54:59.962Z,30.01
2022-08-07T14:57:19.608Z,30.72
2022-08-07T15:00:05.154Z,30.93
2022-08-07T15:02:31.917Z,31.15
2022-08-07T15:04:53.223Z,30.68
2022-08-07T15:07:17.543Z,30.19
2022-08-07T15:10:00.000Z,31.20
2022-08-07T15:12:26.043Z,30.48
2022-08-07T15:14:57.769Z,29.89
2022-08-07T15:17:16.748Z,29.83
2022-08-07T15:20:30.426Z,29.73
2022-08-07T15:22:23.139Z,28.93
2022-08-07T15:25:15.978Z,29.05
2022-08-07T15:27:25.171Z,29.89
2022-08-07T15:35:00.268Z,29.33
2022-08-07T15:37:27.763Z,29.45
2022-08-07T15:44:59.499Z,29.95
2022-08-07T15:47:18.119Z,29.96
2022-08-07T15:52:14.005Z,29.84
2022-08-07T15:54:39.260Z,29.86
2022-08-07T15:56:57.122Z,30.02
2022-08-07T15:59:16.518Z,30.06
2022-08-07T16:01:38.603Z,29.60
2022-08-07T16:03:58.472Z,29.26
2022-08-07T16:06:16.684Z,29.17
2022-08-07T16:08:38.813Z,30.12
2022-08-07T16:10:56.134Z,29.76
2022-08-07T16:13:17.827Z,29.07
2022-08-07T16:15:57.353Z,30.78
2022-08-07T16:18:50.454Z,30.14
2022-08-07T16:21:42.914Z,28.52
2022-08-07T16:23:53.431Z,29.22
2022-08-07T16:26:08.147Z,30.42
2022-08-07T16:29:18.347Z,29.70
2022-08-07T16:31:02.476Z,30.00
2022-08-07T16:34:02.367Z,30.47
2022-08-07T16:36:04.106Z,30.34
2022-08-07T16:38:44.368Z,29.41
2022-08-07T16:41:02.394Z,30.24
2022-08-07T16:43:24.074Z,28.93
2022-08-07T16:46:47.252Z,30.45
2022-08-07T16:48:53.822Z,30.19
2022-08-07T16:52:01.371Z,29.61
2022-08-07T16:54:06.630Z,30.47
2022-08-07T16:56:26.756Z,29.67
2022-08-07T16:59:10.186Z,29.41
2022-08-07T17:01:22.185Z,29.78
2022-08-07T17:03:58.275Z,31.03
2022-08-07T17:06:29.994Z,28.74
2022-08-07T17:09:09.183Z,29.11
2022-08-07T17:11:25.768Z,29.74
2022-08-07T17:14:18.398Z,30.46
2022-08-07T17:16:36.901Z,29.34
2022-08-07T17:18:56.475Z,30.57
2022-08-07T17:21:18.956Z,30.10
2022-08-07T17:23:39.775Z,29.99
2022-08-07T17:25:57.759Z,30.02
2022-08-07T17:28:19.326Z,30.45
2022-08-07T17:30:37.868Z,30.51
2022-08-07T17:34:09.396Z,30.83
2022-08-07T17:35:55.809Z,30.87
2022-08-07T17:38:33.607Z,30.76
2022-08-07T17:40:50.880Z,31.31
2022-08-07T17:43:17.951Z,31.48
2022-08-07T17:45:35.793Z,30.78
2022-08-07T17:47:54.021Z,31.38
2022-08-07T17:50:14.367Z,31.79
2022-08-07T17:52:35.327Z,31.36
2022-08-07T17:54:56.707Z,31.92
2022-08-07T17:57:19.016Z,32.86
2022-08-07T17:59:36.611Z,32.37
2022-08-07T18:01:56.760Z,32.30
2022-08-07T18:04:16.774Z,32.72
2022-08-07T18:06:38.445Z,33.19
2022-08-07T18:09:02.209Z,33.67
2022-08-07T18:12:11.867Z,34.07
2022-08-07T18:14:01.579Z,35.83
2022-08-07T18:16:30.815Z,35.34
2022-08-07T18:21:07.605Z,35.65
2022-08-07T18:21:58.372Z,35.95
2022-08-07T18:24:09.167Z,35.83
2022-08-07T18:26:26.509Z,37.31
2022-08-07T18:28:48.187Z,37.09
2022-08-07T18:31:18.575Z,38.14
2022-08-07T18:33:35.865Z,38.41
2022-08-07T18:35:55.601Z,38.14
2022-08-07T18:38:59.264Z,38.41
2022-08-07T18:40:53.545Z,39.04
2022-08-07T18:43:12.046Z,39.08
2022-08-07T18:45:44.209Z,39.58
2022-08-07T18:48:09.817Z,40.42
2022-08-07T18:50:39.314Z,41.09
2022-08-07T18:53:06.000Z,42.46
2022-08-07T18:55:42.763Z,41.67
2022-08-07T18:58:02.793Z,43.63
2022-08-07T19:00:33.462Z,43.22
2022-08-07T19:02:53.305Z,42.60
2022-08-07T19:05:15.936Z,43.94
2022-08-07T19:07:35.548Z,42.17
2022-08-07T19:09:56.406Z,42.94
2022-08-07T19:12:15.202Z,42.48
2022-08-07T19:14:34.353Z,43.93
2022-08-07T19:17:06.351Z,44.41
2022-08-07T19:19:27.848Z,43.86
2022-08-07T19:21:56.114Z,43.67
2022-08-07T19:24:30.971Z,44.64
2022-08-07T19:28:30.764Z,45.09
2022-08-07T19:31:02.149Z,44.63
2022-08-07T19:32:18.819Z,47.74
2022-08-07T19:34:43.275Z,46.19
2022-08-07T19:37:10.067Z,46.87
2022-08-07T19:39:40.819Z,44.98
2022-08-07T19:42:40.206Z,47.07
2022-08-07T19:44:51.358Z,47.42
2022-08-07T19:47:10.839Z,47.79
2022-08-07T19:49:56.396Z,48.38
2022-08-07T19:52:05.149Z,47.96
2022-08-07T19:54:45.012Z,47.66
2022-08-07T19:58:02.866Z,48.26
2022-08-07T19:59:49.600Z,48.59
2022-08-07T20:02:09.273Z,48.52
2022-08-07T20:04:31.078Z,48.46
2022-08-07T20:06:49.777Z,48.57
2022-08-07T20:09:07.105Z,48.64
2022-08-07T20:12:23.006Z,48.57
2022-08-07T20:14:31.423Z,49.41
2022-08-07T20:16:54.446Z,49.43
2022-08-07T20:19:12.662Z,50.03
2022-08-07T20:21:42.144Z,50.83
2022-08-07T20:24:04.214Z,50.86
2022-08-07T20:26:32.468Z,50.29
2022-08-07T20:28:55.990Z,50.75
2022-08-07T20:31:21.095Z,50.20
2022-08-07T20:33:39.133Z,52.45
2022-08-07T20:36:03.545Z,52.30
2022-08-07T20:38:21.039Z,50.92
2022-08-07T20:40:41.402Z,51.13
2022-08-07T20:42:59.053Z,53.46
2022-08-07T20:45:33.573Z,52.04
2022-08-07T20:47:55.395Z,52.60
2022-08-07T20:50:13.925Z,54.58
2022-08-07T20:52:50.459Z,53.42
2022-08-07T20:55:07.959Z,54.96
2022-08-07T20:57:28.111Z,53.93
2022-08-07T21:00:06.804Z,54.92
2022-08-07T21:02:23.245Z,55.01
2022-08-07T21:04:44.786Z,54.70
2022-08-07T21:07:04.386Z,55.80
2022-08-07T21:09:51.874Z,56.03
2022-08-07T21:12:15.150Z,56.92
2022-08-07T21:14:53.375Z,55.79
2022-08-07T21:18:03.121Z,56.84
2022-08-07T21:19:51.417Z,56.27
2022-08-07T21:22:19.407Z,56.20
2022-08-07T21:24:37.988Z,56.23
2022-08-07T21:26:55.594Z,56.07
2022-08-07T21:29:15.899Z,56.60
2022-08-07T21:32:41.868Z,56.97
2022-08-07T21:34:10.441Z,57.93
2022-08-07T21:36:32.305Z,57.74
2022-08-07T21:38:50.275Z,58.08
2022-08-07T21:41:10.872Z,57.82
2022-08-07T21:43:36.741Z,57.48
2022-08-07T21:46:10.269Z,57.94
2022-08-07T21:48:34.367Z,58.50
2022-08-07T21:50:53.712Z,58.70
2022-08-07T21:53:10.771Z,58.93
2022-08-07T21:55:30.173Z,58.79
2022-08-07T21:57:52.381Z,57.82
2022-08-07T22:00:09.768Z,58.55
2022-08-07T22:02:39.657Z,58.76
2022-08-07T22:04:58.514Z,58.97
2022-08-07T22:07:15.807Z,58.71
2022-08-07T22:09:34.774Z,58.06
2022-08-07T22:12:06.845Z,58.87
2022-08-07T22:14:34.963Z,58.51
2022-08-07T22:16:53.976Z,58.46
2022-08-07T22:19:10.956Z,58.37
2022-08-07T22:22:02.103Z,58.97
2022-08-07T22:24:04.885Z,58.43
2022-08-07T22:26:22.877Z,58.74
2022-08-07T22:28:39.979Z,59.57
2022-08-07T22:30:58.311Z,60.04
2022-08-07T22:33:15.433Z,59.99
2022-08-07T22:35:39.527Z,60.46
2022-08-07T22:38:03.311Z,60.15
2022-08-07T22:40:22.319Z,60.24
2022-08-07T22:42:40.247Z,60.59
2022-08-07T22:45:02.333Z,60.87
2022-08-07T22:47:20.663Z,60.71
2022-08-07T22:49:42.873Z,60.45
2022-08-07T22:52:10.201Z,61.38
2022-08-07T22:54:27.336Z,60.69
2022-08-07T22:56:44.420Z,61.07
2022-08-07T22:59:01.764Z,61.52
2022-08-07T23:01:22.110Z,61.01
2022-08-07T23:03:58.192Z,61.31
2022-08-07T23:06:18.236Z,61.08
2022-08-07T23:08:46.260Z,61.75
2022-08-07T23:11:12.902Z,61.13
2022-08-07T23:13:48.567Z,61.60
2022-08-07T23:16:08.735Z,62.32
2022-08-07T23:18:28.233Z,62.22
2022-08-07T23:20:53.302Z,61.56
2022-08-07T23:23:11.536Z,62.72
2022-08-07T23:25:30.015Z,62.50
2022-08-07T23:28:22.107Z,62.16
2022-08-07T23:30:37.567Z,62.71
2022-08-07T23:34:35.187Z,62.06
2022-08-07T23:35:37.457Z,62.34
2022-08-07T23:38:00.284Z,63.26
2022-08-07T23:40:17.905Z,62.43
2022-08-07T23:42:36.392Z,62.17
2022-08-07T23:44:55.479Z,62.85
2022-08-07T23:47:13.643Z,62.07
2022-08-07T23:49:49.935Z,62.73
2022-08-07T23:53:01.445Z,62.64
2022-08-07T23:54:51.917Z,63.29
2022-08-07T23:57:09.892Z,63.59
